Terminal Aerodrome Forecast
Issued by NWS

Home | Current Version | Previous Version | Text Only | Print | Product List | Glossary On
Versions: 1 2 3 4 5 6 7 8 9 10 11 12 13 14 15 16 17 18 19 20 21 22 23 24 25 26 27 28 29 30
375
FTUS41 KOKX 241722
TAFTEB
TAF
KTEB 241722Z 2418/2518 22012G22KT P6SM BKN040
     FM242300 22007G17KT P6SM BKN040
     FM250300 23008KT P6SM SCT040 BKN080
     FM251200 24003KT 6SM BR OVC050
     FM251500 30006KT 4SM BR OVC025
     FM251700 02008KT 4SM BR OVC015=

USA.gov is the U.S. government's official web portal to all federal, state and local government web resources and services.